createdAt,value
2019-04-28T00:02:26.624Z,23.87
2019-04-28T00:04:55.355Z,23.15
2019-04-28T00:07:24.149Z,23.95
2019-04-28T00:09:52.657Z,25.05
2019-04-28T00:12:22.913Z,25.77
2019-04-28T00:14:52.417Z,25.85
2019-04-28T00:17:21.250Z,24.80
2019-04-28T00:19:51.440Z,26.75
2019-04-28T00:22:21.717Z,26.45
2019-04-28T00:24:51.796Z,27.77
2019-04-28T00:27:21.649Z,27.15
2019-04-28T00:29:51.864Z,26.10
2019-04-28T00:32:21.044Z,28.17
2019-04-28T00:34:51.256Z,27.55
2019-04-28T00:37:24.807Z,26.62
2019-04-28T00:39:53.282Z,29.70
2019-04-28T00:42:22.749Z,29.27
2019-04-28T00:44:51.543Z,28.12
2019-04-28T00:47:21.311Z,30.02
2019-04-28T00:49:51.946Z,30.05
2019-04-28T00:52:22.194Z,30.48
2019-04-28T00:54:52.562Z,30.05
2019-04-28T00:57:22.612Z,31.57
2019-04-28T00:59:57.645Z,30.10
2019-04-28T01:02:23.731Z,32.00
2019-04-28T01:04:52.150Z,31.17
2019-04-28T01:07:21.247Z,32.17
2019-04-28T01:09:51.675Z,31.12
2019-04-28T01:12:21.258Z,32.83
2019-04-28T01:14:54.521Z,32.63
2019-04-28T01:17:39.755Z,32.53
2019-04-28T01:20:29.612Z,34.33
2019-04-28T01:22:58.192Z,33.83
2019-04-28T01:25:26.617Z,39.33
2019-04-28T01:27:56.059Z,34.45
2019-04-28T01:30:43.253Z,34.70
2019-04-28T01:36:03.935Z,37.93
2019-04-28T01:38:33.279Z,35.70
2019-04-28T01:41:01.719Z,36.45
2019-04-28T01:43:31.241Z,34.90
2019-04-28T01:46:00.255Z,37.13
2019-04-28T01:48:29.627Z,36.65
2019-04-28T01:50:59.845Z,36.58
2019-04-28T01:53:28.355Z,35.83
2019-04-28T01:55:59.462Z,38.58
2019-04-28T01:58:29.677Z,37.70
2019-04-28T02:00:59.591Z,39.92
2019-04-28T02:03:30.590Z,41.68
2019-04-28T02:06:00.194Z,43.35
2019-04-28T02:08:30.236Z,45.05
2019-04-28T02:11:00.156Z,48.68
2019-04-28T02:13:29.873Z,44.25
2019-04-28T02:16:00.044Z,44.15
2019-04-28T02:18:29.893Z,45.52
2019-04-28T02:21:06.451Z,45.03
2019-04-28T02:23:36.527Z,42.08
2019-04-28T02:26:04.965Z,47.88
2019-04-28T02:28:33.468Z,48.92
2019-04-28T02:31:02.425Z,43.87
2019-04-28T02:33:31.320Z,44.03
2019-04-28T02:36:01.409Z,44.10
2019-04-28T02:38:33.878Z,46.23
2019-04-28T02:41:00.579Z,45.23
2019-04-28T02:43:30.765Z,48.02
2019-04-28T02:46:00.693Z,47.55
2019-04-28T02:48:30.997Z,48.35
2019-04-28T02:51:06.852Z,49.80
2019-04-28T02:53:37.282Z,48.15
2019-04-28T02:56:06.126Z,50.78
2019-04-28T02:58:34.567Z,46.15
2019-04-28T03:01:15.295Z,49.80
2019-04-28T03:03:34.593Z,47.53
2019-04-28T03:06:03.017Z,48.13
2019-04-28T03:08:33.676Z,49.23
2019-04-28T03:11:02.372Z,46.35
2019-04-28T03:13:31.855Z,50.00
2019-04-28T03:16:01.482Z,45.90
2019-04-28T03:18:31.625Z,49.58
2019-04-28T03:21:01.684Z,45.65
2019-04-28T03:23:31.203Z,48.13
2019-04-28T03:26:07.427Z,46.02
2019-04-28T03:28:43.536Z,49.42
2019-04-28T03:31:46.936Z,47.20
2019-04-28T03:33:49.198Z,46.40
2019-04-28T03:36:23.121Z,51.42
2019-04-28T03:38:50.398Z,49.33
2019-04-28T03:41:21.116Z,61.73
2019-04-28T03:43:51.452Z,46.65
2019-04-28T03:46:30.229Z,49.50
2019-04-28T03:49:33.975Z,50.67
2019-04-28T03:52:03.440Z,56.20
2019-04-28T03:54:31.855Z,54.27
2019-04-28T03:57:02.300Z,53.10
2019-04-28T03:59:32.663Z,51.80
2019-04-28T04:02:03.393Z,51.42
2019-04-28T04:04:32.392Z,50.40
2019-04-28T04:07:02.368Z,50.60
2019-04-28T04:09:33.717Z,49.40
2019-04-28T04:12:06.525Z,47.98
2019-04-28T04:14:37.919Z,52.62
2019-04-28T04:17:08.000Z,47.58
2019-04-28T04:19:37.323Z,49.05
2019-04-28T04:22:06.084Z,53.60
2019-04-28T04:24:34.512Z,52.00
2019-04-28T04:27:03.245Z,51.60
2019-04-28T04:29:32.044Z,49.20
2019-04-28T04:32:13.638Z,51.83
2019-04-28T04:34:31.181Z,52.60
2019-04-28T04:37:00.696Z,54.08
2019-04-28T04:39:30.683Z,51.20
2019-04-28T04:42:00.630Z,53.98
2019-04-28T04:44:31.023Z,54.13
2019-04-28T04:47:01.013Z,53.00
2019-04-28T04:49:31.539Z,48.65
2019-04-28T04:52:00.561Z,49.05
2019-04-28T04:54:32.854Z,49.23
2019-04-28T04:57:01.371Z,48.48
2019-04-28T04:59:32.796Z,46.25
2019-04-28T05:02:26.687Z,43.65
2019-04-28T05:04:47.259Z,46.00
2019-04-28T05:07:15.952Z,43.33
2019-04-28T05:12:09.682Z,40.60
2019-04-28T05:14:39.551Z,42.67
2019-04-28T05:17:10.381Z,43.35
2019-04-28T05:19:40.243Z,36.53
2019-04-28T05:22:10.448Z,36.40
2019-04-28T05:24:46.359Z,41.13
2019-04-28T05:27:13.343Z,41.02
2019-04-28T05:29:41.765Z,38.50
2019-04-28T05:32:10.764Z,38.67
2019-04-28T05:34:46.404Z,37.13
2019-04-28T05:37:10.795Z,38.55
2019-04-28T05:39:44.279Z,37.13
2019-04-28T05:42:13.883Z,37.98
2019-04-28T05:44:43.246Z,34.05
2019-04-28T05:47:11.696Z,38.85
2019-04-28T05:49:55.220Z,36.23
2019-04-28T05:52:40.431Z,38.50
2019-04-28T05:55:13.623Z,35.78
2019-04-28T05:57:46.651Z,36.93
2019-04-28T06:00:29.800Z,39.63
2019-04-28T06:03:00.664Z,40.65
2019-04-28T06:05:31.820Z,41.28
2019-04-28T06:08:09.897Z,33.05
2019-04-28T06:10:39.856Z,38.08
2019-04-28T06:13:09.983Z,38.48
2019-04-28T06:15:39.924Z,37.42
2019-04-28T06:18:10.456Z,37.75
2019-04-28T06:20:40.690Z,38.70
2019-04-28T06:23:09.574Z,42.75
2019-04-28T06:25:38.370Z,37.75
2019-04-28T06:28:06.795Z,37.25
2019-04-28T06:30:35.656Z,33.58
2019-04-28T06:33:08.123Z,38.50
2019-04-28T06:35:35.196Z,38.48
2019-04-28T06:38:05.540Z,39.23
2019-04-28T06:40:35.314Z,39.18
2019-04-28T06:43:04.004Z,44.40
2019-04-28T06:45:33.381Z,39.63
2019-04-28T06:48:02.160Z,40.45
2019-04-28T06:50:33.611Z,42.03
2019-04-28T06:53:03.055Z,41.65
2019-04-28T06:55:32.063Z,37.80
2019-04-28T06:58:00.487Z,40.73
2019-04-28T07:00:28.931Z,40.88
2019-04-28T07:02:57.625Z,37.83
2019-04-28T07:05:26.058Z,39.63
2019-04-28T07:07:54.487Z,36.03
2019-04-28T07:10:23.835Z,38.63
2019-04-28T07:12:52.272Z,41.80
2019-04-28T07:15:20.967Z,35.10
2019-04-28T07:17:49.691Z,36.40
2019-04-28T07:20:21.007Z,36.28
2019-04-28T07:22:49.460Z,35.55
2019-04-28T07:25:18.187Z,33.78
2019-04-28T07:27:46.615Z,31.80
2019-04-28T07:30:17.063Z,32.23
2019-04-28T07:32:47.470Z,33.85
2019-04-28T07:35:16.939Z,32.63
2019-04-28T07:37:45.359Z,32.33
2019-04-28T07:40:14.035Z,31.93
2019-04-28T07:42:42.800Z,35.00
2019-04-28T07:45:12.427Z,29.70
2019-04-28T07:47:40.860Z,29.48
2019-04-28T07:50:09.793Z,31.17
2019-04-28T07:52:43.001Z,30.92
2019-04-28T07:55:11.718Z,32.53
2019-04-28T07:57:41.488Z,31.73
2019-04-28T08:00:11.615Z,31.07
2019-04-28T08:02:40.041Z,32.53
2019-04-28T08:05:08.724Z,32.25
2019-04-28T08:07:38.140Z,30.05
2019-04-28T08:10:06.999Z,27.30
2019-04-28T08:12:35.441Z,26.52
2019-04-28T08:15:04.407Z,25.25
2019-04-28T08:17:33.241Z,26.55
2019-04-28T08:20:05.477Z,27.00
2019-04-28T08:22:33.101Z,27.17
2019-04-28T08:25:02.456Z,25.45
2019-04-28T08:27:31.129Z,26.05
2019-04-28T08:29:59.890Z,25.43
2019-04-28T08:32:37.111Z,27.50
2019-04-28T08:35:06.595Z,24.80
2019-04-28T08:37:35.263Z,21.30
2019-04-28T08:40:05.223Z,19.82
2019-04-28T08:42:33.981Z,21.35
2019-04-28T08:45:04.090Z,18.75
2019-04-28T08:47:32.892Z,18.52
2019-04-28T08:50:01.592Z,18.80
2019-04-28T08:52:30.019Z,17.48
2019-04-28T08:54:58.467Z,15.38
2019-04-28T08:57:27.072Z,15.70
2019-04-28T08:59:55.496Z,15.93
2019-04-28T09:02:24.524Z,13.38
2019-04-28T09:04:53.228Z,11.85
2019-04-28T09:07:21.668Z,11.45
2019-04-28T09:09:50.393Z,11.57
2019-04-28T09:12:18.830Z,12.93
2019-04-28T09:14:47.564Z,12.45
2019-04-28T09:17:17.279Z,12.03
2019-04-28T09:19:45.703Z,9.65
2019-04-28T09:22:14.151Z,9.08
2019-04-28T09:24:42.935Z,8.10
2019-04-28T09:27:11.379Z,7.05
2019-04-28T09:29:39.811Z,7.50
2019-04-28T09:32:08.606Z,7.97
2019-04-28T09:34:37.287Z,7.47
2019-04-28T09:37:05.719Z,6.42
2019-04-28T09:39:41.459Z,6.37
2019-04-28T09:42:24.036Z,6.33
2019-04-28T09:44:52.458Z,5.33
2019-04-28T09:47:21.203Z,5.03
2019-04-28T09:49:49.894Z,4.58
2019-04-28T09:52:18.328Z,4.05
2019-04-28T09:54:46.752Z,3.87
2019-04-28T09:57:15.185Z,3.87
2019-04-28T09:59:43.602Z,3.85
2019-04-28T10:02:12.031Z,4.35
2019-04-28T10:04:41.844Z,4.97
2019-04-28T10:07:10.667Z,4.55
2019-04-28T10:09:39.412Z,4.00
2019-04-28T10:12:08.207Z,3.55
2019-04-28T10:14:36.626Z,3.72
2019-04-28T10:17:05.312Z,3.60
2019-04-28T10:19:33.752Z,4.10
2019-04-28T10:22:02.423Z,4.10
2019-04-28T10:24:31.147Z,4.28
2019-04-28T10:26:59.580Z,4.20
2019-04-28T10:29:32.873Z,4.12
2019-04-28T10:32:00.484Z,3.77
2019-04-28T10:34:29.200Z,3.98
2019-04-28T10:36:57.683Z,4.30
2019-04-28T10:39:31.059Z,4.20
2019-04-28T10:41:59.567Z,4.20
2019-04-28T10:44:30.696Z,3.70
2019-04-28T10:47:01.835Z,4.10
2019-04-28T10:49:31.456Z,4.67
2019-04-28T10:51:59.922Z,4.35
2019-04-28T10:54:28.395Z,4.35
2019-04-28T10:56:56.836Z,4.35
2019-04-28T10:59:26.283Z,4.90
2019-04-28T11:01:54.723Z,4.42
2019-04-28T11:04:41.196Z,4.20
2019-04-28T11:07:11.623Z,4.72
2019-04-28T11:09:47.679Z,4.97
2019-04-28T11:12:30.600Z,4.55
2019-04-28T11:14:59.026Z,4.60
2019-04-28T11:17:46.701Z,4.25
2019-04-28T11:20:15.466Z,5.08
2019-04-28T11:22:45.108Z,5.00
2019-04-28T11:25:14.079Z,4.92
2019-04-28T11:27:42.680Z,4.75
2019-04-28T11:30:14.145Z,4.90
2019-04-28T11:32:45.127Z,4.53
2019-04-28T11:35:21.854Z,4.62
2019-04-28T11:37:48.116Z,4.78
2019-04-28T11:40:17.812Z,5.03
2019-04-28T11:42:46.237Z,5.53
2019-04-28T11:45:15.190Z,5.22
2019-04-28T11:47:43.979Z,5.50
2019-04-28T11:50:13.905Z,5.30
2019-04-28T11:52:48.159Z,5.10
2019-04-28T11:55:16.647Z,5.20
2019-04-28T11:57:45.410Z,4.80
2019-04-28T12:00:16.028Z,5.22
2019-04-28T12:02:44.692Z,4.45
2019-04-28T12:05:15.561Z,5.12
2019-04-28T12:07:44.247Z,4.75
2019-04-28T12:10:14.696Z,4.72
2019-04-28T12:13:00.356Z,5.22
2019-04-28T12:15:33.127Z,4.83
2019-04-28T12:18:07.355Z,5.12
2019-04-28T12:20:35.791Z,4.90
2019-04-28T12:23:04.388Z,4.62
2019-04-28T12:25:32.931Z,4.15
2019-04-28T12:28:01.728Z,4.85
2019-04-28T12:30:30.227Z,3.90
2019-04-28T12:32:58.643Z,4.20
2019-04-28T12:35:27.076Z,4.33
2019-04-28T12:37:55.507Z,3.87
2019-04-28T12:40:24.884Z,4.47
2019-04-28T12:42:55.501Z,5.67
2019-04-28T12:45:34.893Z,6.80
2019-04-28T12:47:55.332Z,7.08
2019-04-28T12:50:25.375Z,7.03
2019-04-28T12:52:56.091Z,6.67
2019-04-28T12:55:24.867Z,7.10
2019-04-28T12:57:53.656Z,6.62
2019-04-28T13:00:26.951Z,5.60
2019-04-28T13:03:07.204Z,6.08
2019-04-28T13:05:39.843Z,5.60
2019-04-28T13:08:08.329Z,5.70
2019-04-28T13:10:37.174Z,6.45
2019-04-28T13:13:06.515Z,6.40
2019-04-28T13:15:35.932Z,6.42
2019-04-28T13:18:05.739Z,5.92
2019-04-28T13:20:34.182Z,5.97
2019-04-28T13:23:03.520Z,6.37
2019-04-28T13:25:31.963Z,5.55
2019-04-28T13:28:01.309Z,5.72
2019-04-28T13:30:29.741Z,5.97
2019-04-28T13:32:58.177Z,5.72
2019-04-28T13:35:26.679Z,5.95
2019-04-28T13:37:55.135Z,6.30
2019-04-28T13:40:31.207Z,6.22
2019-04-28T13:42:59.642Z,6.17
2019-04-28T13:45:29.893Z,6.53
2019-04-28T13:47:58.341Z,6.50
2019-04-28T13:50:37.681Z,6.55
2019-04-28T13:53:07.476Z,5.70
2019-04-28T13:55:38.216Z,6.42
2019-04-28T13:58:07.052Z,6.00
2019-04-28T14:00:41.199Z,6.08
2019-04-28T14:03:18.519Z,6.03
2019-04-28T14:05:51.483Z,5.53
2019-04-28T14:08:19.915Z,5.80
2019-04-28T14:10:50.463Z,6.67
2019-04-28T14:13:19.246Z,5.78
2019-04-28T14:15:48.497Z,5.40
2019-04-28T14:18:24.068Z,5.45
2019-04-28T14:20:52.904Z,4.60
2019-04-28T14:23:21.395Z,5.53
2019-04-28T14:25:50.165Z,5.40
2019-04-28T14:28:18.860Z,5.05
2019-04-28T14:30:47.298Z,5.35
2019-04-28T14:33:16.675Z,5.20
2019-04-28T14:35:46.321Z,4.97
2019-04-28T14:38:15.148Z,4.75
2019-04-28T14:40:43.617Z,4.95
2019-04-28T14:43:13.999Z,4.60
2019-04-28T14:45:43.503Z,4.75
2019-04-28T14:48:13.193Z,4.90
2019-04-28T14:50:41.638Z,4.75
2019-04-28T14:53:11.123Z,5.60
2019-04-28T14:55:39.557Z,4.60
2019-04-28T14:58:08.459Z,4.60
2019-04-28T15:00:39.043Z,4.60
2019-04-28T15:03:17.606Z,4.42
2019-04-28T15:05:56.494Z,4.28
2019-04-28T15:08:32.683Z,4.87
2019-04-28T15:11:06.599Z,4.83
2019-04-28T15:16:03.705Z,4.42
2019-04-28T15:18:32.196Z,4.47
2019-04-28T15:21:00.672Z,4.30
2019-04-28T15:23:29.163Z,4.75
2019-04-28T15:25:57.611Z,4.67
2019-04-28T15:28:26.296Z,4.03
2019-04-28T15:30:56.673Z,5.00
2019-04-28T15:33:25.366Z,4.67
2019-04-28T15:35:53.788Z,4.90
2019-04-28T15:38:22.492Z,3.83
2019-04-28T15:40:50.916Z,4.00
2019-04-28T15:43:21.254Z,3.77
2019-04-28T15:45:49.683Z,4.00
2019-04-28T15:48:19.300Z,4.08
2019-04-28T15:50:47.992Z,3.92
2019-04-28T15:53:17.611Z,4.67
2019-04-28T15:55:49.604Z,4.58
2019-04-28T15:58:34.732Z,4.58
2019-04-28T16:01:03.736Z,4.83
2019-04-28T16:03:32.174Z,4.62
2019-04-28T16:06:00.610Z,4.20
2019-04-28T16:08:30.309Z,4.60
2019-04-28T16:10:58.999Z,4.50
2019-04-28T16:13:27.697Z,4.33
2019-04-28T16:15:56.135Z,3.80
2019-04-28T16:18:24.867Z,4.20
2019-04-28T16:20:53.303Z,4.10
2019-04-28T16:23:21.728Z,4.03
2019-04-28T16:25:50.344Z,3.87
2019-04-28T16:28:18.770Z,4.40
2019-04-28T16:30:48.150Z,4.67
2019-04-28T16:33:16.751Z,4.47
2019-04-28T16:35:45.195Z,4.30
2019-04-28T16:38:13.614Z,4.05
2019-04-28T16:40:42.391Z,4.33
2019-04-28T16:43:11.160Z,4.47
2019-04-28T16:45:39.855Z,4.00
2019-04-28T16:48:08.635Z,4.10
2019-04-28T16:50:38.262Z,4.28
2019-04-28T16:53:06.703Z,3.95
2019-04-28T16:55:39.874Z,3.87
2019-04-28T16:58:12.645Z,3.83
2019-04-28T17:00:42.766Z,4.05
2019-04-28T17:03:13.359Z,3.72
2019-04-28T17:05:42.052Z,3.52
2019-04-28T17:08:10.474Z,3.52
2019-04-28T17:10:38.899Z,3.37
2019-04-28T17:13:07.607Z,3.27
2019-04-28T17:15:36.039Z,3.47
2019-04-28T17:18:04.581Z,3.17
2019-04-28T17:20:33.119Z,3.47
2019-04-28T17:23:02.511Z,3.05
2019-04-28T17:25:30.948Z,3.60
2019-04-28T17:27:59.655Z,3.40
2019-04-28T17:30:28.668Z,3.45
2019-04-28T17:32:57.539Z,3.62
2019-04-28T17:35:26.044Z,3.40
2019-04-28T17:38:06.050Z,3.20
2019-04-28T17:40:25.191Z,3.17
2019-04-28T17:42:53.936Z,3.40
2019-04-28T17:45:22.372Z,3.20
2019-04-28T17:47:53.439Z,3.05
2019-04-28T17:50:23.634Z,3.55
2019-04-28T17:52:52.092Z,3.65
2019-04-28T17:55:20.526Z,3.55
2019-04-28T17:57:49.250Z,3.45
2019-04-28T18:00:25.511Z,3.58
2019-04-28T18:03:02.287Z,4.00
2019-04-28T18:05:35.093Z,4.22
2019-04-28T18:08:20.396Z,4.03
2019-04-28T18:10:37.691Z,4.80
2019-04-28T18:13:07.435Z,4.83
2019-04-28T18:15:44.443Z,4.50
2019-04-28T18:18:14.546Z,4.72
2019-04-28T18:20:43.276Z,4.65
2019-04-28T18:23:11.976Z,5.30
2019-04-28T18:25:41.688Z,4.67
2019-04-28T18:28:10.148Z,4.90
2019-04-28T18:30:40.215Z,5.12
2019-04-28T18:33:28.379Z,5.30
2019-04-28T18:36:05.363Z,4.70
2019-04-28T18:38:35.595Z,4.42
2019-04-28T18:41:20.779Z,4.83
2019-04-28T18:44:06.075Z,4.62
2019-04-28T18:46:34.880Z,5.12
2019-04-28T18:49:03.388Z,5.50
2019-04-28T18:51:31.832Z,5.28
2019-04-28T18:54:00.241Z,4.70
2019-04-28T18:56:28.714Z,4.85
2019-04-28T18:58:57.485Z,4.85
2019-04-28T19:01:30.243Z,4.67
2019-04-28T19:03:59.091Z,5.17
2019-04-28T19:06:27.526Z,5.75
2019-04-28T19:09:03.712Z,5.20
2019-04-28T19:11:40.839Z,5.35
2019-04-28T19:14:24.120Z,5.25
2019-04-28T19:17:10.042Z,5.97
2019-04-28T19:19:41.132Z,6.15
2019-04-28T19:22:09.547Z,5.30
2019-04-28T19:24:38.324Z,5.67
2019-04-28T19:27:06.757Z,5.53
2019-04-28T19:29:35.187Z,7.10
2019-04-28T19:32:03.616Z,6.58
2019-04-28T19:34:33.012Z,7.40
2019-04-28T19:37:01.599Z,8.70
2019-04-28T19:39:30.012Z,7.95
2019-04-28T19:41:59.755Z,8.55
2019-04-28T19:44:28.201Z,7.37
2019-04-28T19:46:57.036Z,6.40
2019-04-28T19:49:25.828Z,6.78
2019-04-28T19:51:54.253Z,7.22
2019-04-28T19:54:24.340Z,7.80
2019-04-28T19:56:59.846Z,7.08
2019-04-28T19:59:29.939Z,6.37
2019-04-28T20:01:58.354Z,7.97
2019-04-28T20:04:27.722Z,8.15
2019-04-28T20:06:57.407Z,8.18
2019-04-28T20:09:25.832Z,8.48
2019-04-28T20:11:54.263Z,9.00
2019-04-28T20:14:22.684Z,8.38
2019-04-28T20:16:52.368Z,7.70
2019-04-28T20:19:21.035Z,8.98
2019-04-28T20:21:49.475Z,7.85
2019-04-28T20:24:19.575Z,7.25
2019-04-28T20:26:48.148Z,8.13
2019-04-28T20:29:16.569Z,7.87
2019-04-28T20:31:45.366Z,7.22
2019-04-28T20:34:14.128Z,7.47
2019-04-28T20:36:46.955Z,7.70
2019-04-28T20:39:17.015Z,7.37
2019-04-28T20:41:47.407Z,7.37
2019-04-28T20:44:16.144Z,7.83
2019-04-28T20:46:45.857Z,6.97
2019-04-28T20:49:14.547Z,7.75
2019-04-28T20:51:42.986Z,7.62
2019-04-28T20:54:11.420Z,7.87
2019-04-28T20:56:40.817Z,7.83
2019-04-28T20:59:09.272Z,7.08
2019-04-28T21:01:38.004Z,8.38
2019-04-28T21:04:06.431Z,7.87
2019-04-28T21:06:34.911Z,7.90
2019-04-28T21:09:03.336Z,8.45
2019-04-28T21:11:31.759Z,9.50
2019-04-28T21:14:00.527Z,9.43
2019-04-28T21:16:29.871Z,8.53
2019-04-28T21:19:00.575Z,9.70
2019-04-28T21:21:29.256Z,8.83
2019-04-28T21:23:57.703Z,7.92
2019-04-28T21:26:27.356Z,8.70
2019-04-28T21:28:56.049Z,9.28
2019-04-28T21:31:24.744Z,9.33
2019-04-28T21:33:53.163Z,9.38
2019-04-28T21:36:21.587Z,9.25
2019-04-28T21:38:50.707Z,8.10
2019-04-28T21:41:20.066Z,10.00
2019-04-28T21:43:50.135Z,10.35
2019-04-28T21:46:29.069Z,10.40
2019-04-28T21:48:59.129Z,9.63
2019-04-28T21:51:34.726Z,9.60
2019-04-28T21:54:09.143Z,9.80
2019-04-28T21:56:37.835Z,11.20
2019-04-28T21:59:06.281Z,12.05
2019-04-28T22:01:35.932Z,10.68
2019-04-28T22:04:05.811Z,13.03
2019-04-28T22:06:34.232Z,14.93
2019-04-28T22:09:02.926Z,14.23
2019-04-28T22:11:31.356Z,12.33
2019-04-28T22:14:00.106Z,13.43
2019-04-28T22:16:28.539Z,13.30
2019-04-28T22:18:58.656Z,13.13
2019-04-28T22:21:27.103Z,13.55
2019-04-28T22:24:09.480Z,13.80
2019-04-28T22:26:45.247Z,13.40
2019-04-28T22:29:14.867Z,13.38
2019-04-28T22:31:44.337Z,12.88
2019-04-28T22:34:16.007Z,13.35
2019-04-28T22:36:46.619Z,14.15
2019-04-28T22:39:15.555Z,13.95
2019-04-28T22:41:44.564Z,13.88
2019-04-28T22:44:13.439Z,13.28
2019-04-28T22:46:41.909Z,13.62
2019-04-28T22:49:10.720Z,13.45
2019-04-28T22:51:40.333Z,13.18
2019-04-28T22:54:14.431Z,13.58
2019-04-28T22:56:44.732Z,14.18
2019-04-28T22:59:23.358Z,14.03
2019-04-28T23:02:00.276Z,14.50
2019-04-28T23:04:30.354Z,13.18
2019-04-28T23:06:58.772Z,13.72
2019-04-28T23:09:27.203Z,13.10
2019-04-28T23:11:56.620Z,13.95
2019-04-28T23:14:25.115Z,14.18
2019-04-28T23:16:53.835Z,14.20
2019-04-28T23:19:23.927Z,14.23
2019-04-28T23:21:56.703Z,14.53
2019-04-28T23:24:25.384Z,13.90
2019-04-28T23:26:53.830Z,14.75
2019-04-28T23:29:22.243Z,14.18
2019-04-28T23:31:50.672Z,15.08
2019-04-28T23:34:21.072Z,15.50
2019-04-28T23:36:49.491Z,15.80
2019-04-28T23:39:18.835Z,16.25
2019-04-28T23:41:49.231Z,16.52
2019-04-28T23:44:18.849Z,16.07
2019-04-28T23:46:57.875Z,15.35
2019-04-28T23:49:28.303Z,15.03
2019-04-28T23:52:10.702Z,16.48
2019-04-28T23:54:46.754Z,16.12
2019-04-28T23:57:15.195Z,16.10
2019-04-28T23:59:43.619Z,15.18
